Cananeia, Brazil
Current Conditions -  °F | °C
As of 7:00 PM on Monday 20 Oct 2014 (Local Time) from SBCT Reporting Station
Overcast Overcast  
Wind Chill: 57°   Ceiling: 400
Heat Index: 57°   Visibility: 6mi
Dew Point: 55°   Wind: 10mph
Humidity: 94%   Direction: 120°ESE
Pressure: 30.15"   Gusts: NA
Location:  25.01°S, 47.93°W
Report Text: SBCT 202200Z 12009KT 9999 OVC004 14/13 Q1021
Loading
Personal Weather Stations






























Interactive Weather Map
Tropical Storm Tracking
New forecast layout! Learn more

10-Day Weather Forecast

Advertisements
Track Severe Weather on mobile